Flight Track Log - Related Links

Times and Time Zones

All times are in EDT time to prevent confusion due to time zone crossing. See the FSR411 flight status page for this flight to view local times or setup timezone preferences in your user account.

Time Position Orientation Groundspeed Altitude Reporting Facility
EDT Latitude Longitude Course Direction KTS MPH feet Rate Location/Type
Thu 10:25:01 AM 40.1175 -88.2850 150° Southeast 225 259 41,000  Level Indianapolis Center
Thu 10:26:03 AM 40.1714 -88.2269 39° Northeast 286 329 7,000 -15,145 Descending Indianapolis Center
Thu 10:27:05 AM 40.1194 -88.1514 132° Southeast 300 345 9,700 1,597 Climbing Indianapolis Center
Thu 10:28:07 AM 40.0428 -88.0975 152° Southeast 324 373 10,300 1,839 Climbing Chicago Center
Thu 10:29:09 AM 39.9528 -88.0306 150° Southeast 366 421 13,500 3,194 Climbing Chicago Center
Thu 10:30:00 AM 39.4377 -87.8208 150° Southeast  Level FlightAware Approximate
Thu 10:30:11 AM 39.8569 -87.9589 150° Southeast 390 449 16,900  Level Chicago Center
Thu 10:31:13 AM 39.7556 -87.8858 151° Southeast 404 465 20,000 2,903 Climbing Indianapolis Center
Thu 10:32:15 AM 39.6300 -87.7931 150° Southeast 426 490 22,900 2,468 Climbing Indianapolis Center
Thu 10:33:17 AM 39.5211 -87.7128 150° Southeast 447 514 25,100 2,032 Climbing Indianapolis Center
Thu 10:34:19 AM 39.4086 -87.6319 151° Southeast 463 533 27,100 1,355 Climbing Indianapolis Center
Thu 10:35:21 AM 39.2933 -87.5475 150° Southeast 477 549 27,900 435 Climbing Indianapolis Center
Thu 10:36:23 AM 39.1781 -87.4631 150° Southeast 480 552 28,000 339 Climbing Indianapolis Center
Thu 10:37:25 AM 39.0442 -87.3667 151° Southeast 483 556 28,600 1,161 Climbing Indianapolis Center
Thu 10:38:27 AM 38.9242 -87.2797 151° Southeast 490 564 30,400 1,694 Climbing Indianapolis Center
Thu 10:39:29 AM 38.8044 -87.1931 151° Southeast 492 566 32,100 1,161 Climbing Indianapolis Center
Thu 10:40:31 AM 38.6797 -87.1047 151° Southeast 503 579 32,800 720 Climbing Indianapolis Center
Thu 10:41:34 AM 38.5486 -87.0103 151° Southeast 526 605 33,600 1,056 Climbing Indianapolis Center
Thu 10:42:36 AM 38.4153 -86.9158 151° Southeast 533 613 35,000 1,161 Climbing Indianapolis Center
Thu 10:43:38 AM 38.2797 -86.8194 151° Southeast 540 621 36,000 871 Climbing Indianapolis Center
Thu 10:44:40 AM 38.1172 -86.7075 152° Southeast 546 628 36,800 774 Climbing Indianapolis Center
Thu 10:45:42 AM 37.9800 -86.6108 151° Southeast 556 640 37,600 919 Climbing Indianapolis Center
Thu 10:46:44 AM 37.8417 -86.5142 151° Southeast 562 647 38,700 1,645 Climbing Indianapolis Center
Thu 10:47:46 AM 37.7061 -86.4219 152° Southeast 510 587 41,000 1,113 Climbing Indianapolis Center
Thu 10:48:48 AM 37.5825 -86.3356 151° Southeast 505 581 41,000  Level Indianapolis Center
Thu 10:49:50 AM 37.4567 -86.2486 151° Southeast 501 577 41,000  Level Indianapolis Center
Thu 10:50:52 AM 37.3378 -86.1681 152° Southeast 491 565 41,000  Level Indianapolis Center
Thu 10:51:54 AM 37.2167 -86.0853 151° Southeast 489 563 41,000  Level Indianapolis Center
Thu 10:52:56 AM 37.0958 -86.0031 152° Southeast 489 563 41,000  Level Indianapolis Center
Thu 10:53:58 AM 36.9769 -85.9231 152° Southeast 478 550 41,000  Level Indianapolis Center
Thu 10:55:00 AM 36.8581 -85.8417 151° Southeast 478 550 41,000  Level Indianapolis Center
Thu 10:55:37 AM 36.7783 -85.7875 151° Southeast 480 552 41,000  Level Indianapolis Center
Thu 10:57:00 AM 36.6333 -85.6897 152° Southeast  Level FlightAware Approximate
Thu 10:58:18 AM 36.4658 -85.5800 152° Southeast 484 557 41,000  Level Atlanta Center
Thu 10:59:18 AM 36.3436 -85.4975 151° Southeast 489 563 41,000  Level Atlanta Center
Thu 11:00:18 AM 36.2258 -85.4208 152° Southeast 484 557 41,000 100 Level Atlanta Center
Thu 11:01:18 AM 36.1078 -85.3444 152° Southeast 484 557 41,200 550 Climbing Atlanta Center
Thu 11:02:18 AM 35.9917 -85.2681 152° Southeast 484 557 42,100 700 Climbing Atlanta Center
Thu 11:03:18 AM 35.8736 -85.1944 153° Southeast 479 551 42,600 450 Climbing Atlanta Center
Thu 11:04:18 AM 35.7531 -85.1186 153° Southeast 479 551 43,000 200 Climbing Atlanta Center
Thu 11:05:18 AM 35.6369 -85.0403 151° Southeast 479 551 43,000  Level Atlanta Center
Thu 11:06:18 AM 35.5167 -84.9597 151° Southeast 484 557 43,000  Level Atlanta Center
Thu 11:07:18 AM 35.3983 -84.8822 152° Southeast 484 557 43,000  Level Atlanta Center
Thu 11:08:18 AM 35.2797 -84.8069 153° Southeast 484 557 43,000  Level Atlanta Center
Thu 11:09:18 AM 35.1614 -84.7297 152° Southeast 484 557 43,000  Level Atlanta Center
Thu 11:10:18 AM 35.0450 -84.6553 152° Southeast 484 557 43,000  Level Atlanta Center
Thu 11:11:18 AM 34.9264 -84.5808 153° Southeast 484 557 43,000  Level Atlanta Center
Thu 11:12:18 AM 34.7994 -84.4942 151° Southeast 484 557 43,000  Level Atlanta Center
Thu 11:13:18 AM 34.6806 -84.4178 152° Southeast 479 551 43,000  Level Atlanta Center
Thu 11:14:18 AM 34.5661 -84.3464 153° Southeast 471 542 43,000  Level Atlanta Center
Thu 11:15:18 AM 34.4597 -84.2806 153° Southeast 471 542 43,000  Level Atlanta Center
Thu 11:16:18 AM 34.3431 -84.2072 153° Southeast 471 542 43,000  Level Atlanta Center
Thu 11:17:18 AM 34.2264 -84.1317 152° Southeast 471 542 43,000  Level Atlanta Center
Thu 11:18:18 AM 34.1072 -84.0564 152° Southeast 471 542 43,000  Level Atlanta Center
Thu 11:19:18 AM 33.9800 -83.9786 153° Southeast 471 542 43,000  Level Atlanta Center
Thu 11:20:18 AM 33.8631 -83.9086 154° Southeast 471 542 43,000  Level Atlanta Center
Thu 11:21:18 AM 33.7481 -83.8364 152° Southeast 471 542 43,000  Level Atlanta Center
Thu 11:22:18 AM 33.6333 -83.7669 153° Southeast 471 542 43,000 -700 Level Atlanta Center
Thu 11:23:18 AM 33.5183 -83.6975 153° Southeast 471 542 41,600 -2,000 Descending Atlanta Center
Thu 11:24:18 AM 33.4033 -83.6283 153° Southeast 465 535 39,000 -2,600 Descending Atlanta Center
Thu 11:25:18 AM 33.2797 -83.5517 153° Southeast 481 554 36,400 -2,400 Descending Atlanta Center
Thu 11:26:18 AM 33.1625 -83.4831 154° Southeast 499 574 34,200 -2,450 Descending Atlanta Center
Thu 11:27:18 AM 33.0369 -83.4044 152° Southeast 517 595 31,500 -2,350 Descending Atlanta Center
Thu 11:28:18 AM 32.9050 -83.3239 153° Southeast 517 595 29,500 -1,600 Descending Atlanta Center
Thu 11:29:18 AM 32.7731 -83.2433 153° Southeast 517 595 28,300 -750 Descending Atlanta Center
Thu 11:30:18 AM 32.6472 -83.1681 153° Southeast 512 589 28,000 -150 Descending Atlanta Center
Thu 11:31:18 AM 32.5194 -83.0906 153° Southeast 512 589 28,000  Level Atlanta Center
Thu 11:32:46 AM 32.3336 -82.9786 153° Southeast 508 585 28,000 -568 Level Jacksonville Center
Thu 11:33:46 AM 32.2083 -82.9047 153° Southeast 508 585 26,600 -1,000 Descending Jacksonville Center
Thu 11:34:46 AM 32.0850 -82.8314 153° Southeast 503 579 26,000 -300 Descending Jacksonville Center
Thu 11:35:46 AM 31.9619 -82.7603 154° Southeast 497 572 26,000 -50 Level Jacksonville Center
Thu 11:36:46 AM 31.8364 -82.6872 154° Southeast 497 572 25,900 -1,150 Descending Jacksonville Center
Thu 11:37:46 AM 31.7172 -82.6142 152° Southeast 486 559 23,700 -1,450 Descending Jacksonville Center
Thu 11:38:46 AM 31.5981 -82.5536 157° South 475 547 23,000 -1,550 Descending Jacksonville Center
Thu 11:39:46 AM 31.4811 -82.4931 156° South 465 535 20,600 -2,550 Descending Jacksonville Center
Thu 11:40:46 AM 31.3722 -82.4353 156° South 452 520 17,900 -2,727 Descending Jacksonville Center
Thu 11:42:20 AM 31.1903 -82.3414 156° South 411 473 13,600 -2,071 Descending Jacksonville Center
Thu 11:43:34 AM 31.0711 -82.2814 157° South 406 467 12,100 -761 Descending Jacksonville Center
Thu 11:44:34 AM 30.9642 -82.2142 152° Southeast 404 465 11,900 -574 Descending Jacksonville Center
Thu 11:45:29 AM 30.9011 -82.1444 136° Southeast 332 382 11,000 -1,227 Descending Jacksonville Center
Thu 11:46:46 AM 30.8089 -82.0725 146° Southeast 344 396 9,200 -1,254 Descending Jacksonville Center
Thu 11:47:43 AM 30.7417 -82.0200 146° Southeast 306 352 8,200 -1,075 Descending Jacksonville Center
Thu 11:48:32 AM 30.6892 -81.9794 146° Southeast 297 342 7,300 -1,091 Descending Jacksonville Center
Thu 11:49:33 AM 30.6219 -81.9269 146° Southeast 290 334 6,200 -1,164 Descending Jacksonville Center
Thu 11:50:46 AM 30.5381 -81.8700 150° Southeast 287 330 4,700 -1,151 Descending Jacksonville Center
Thu 11:50:46 AM 30.5381 -81.8700 150° Southeast 284 327 4,800 -700 Climbing Jacksonville Center
Thu 11:51:46 AM 30.4608 -81.8708 181° South 272 313 4,000 -655 Descending Jacksonville Center
Thu 11:52:36 AM 30.4064 -81.8739 183° South 242 278 3,600 -1,026 Descending Jacksonville Center
Thu 11:53:43 AM 30.3292 -81.8744 180° South 245 282 2,000 -1,031 Descending Jacksonville Center
Thu 11:54:44 AM 30.2792 -81.8631 169° South 156 180 1,400 -516 Descending Jacksonville Center
Thu 11:55:51 AM 30.2372 -81.8492 164° South 142 163 900 -448 Descending Jacksonville Center
Thu 11:57:00 AM 30.2167 -81.8667 257° West  Level FlightAware Approximate
Thu 12:04:00 PM 30.2188 -81.8772 257° West  Level Estimated

Login

Don't have an account? Register now (free) for customized features, flight alerts, and more!